createdAt,value
2019-06-20T00:01:05.869Z,100706.30
2019-06-20T00:05:09.853Z,100708.10
2019-06-20T00:09:13.953Z,100709.99
2019-06-20T00:13:17.844Z,100699.59
2019-06-20T00:17:21.698Z,100694.22
2019-06-20T00:21:25.415Z,100695.78
2019-06-20T00:25:27.872Z,100700.14
2019-06-20T00:29:31.840Z,100693.92
2019-06-20T00:33:34.083Z,100696.60
2019-06-20T00:37:36.090Z,100698.47
2019-06-20T00:41:38.351Z,100697.45
2019-06-20T00:45:40.453Z,100705.37
2019-06-20T00:49:42.899Z,100705.37
2019-06-20T00:53:46.106Z,100696.27
2019-06-20T00:57:48.634Z,100699.15
2019-06-20T01:01:50.899Z,100701.73
2019-06-20T01:05:53.119Z,100701.48
2019-06-20T01:09:55.261Z,100697.15
2019-06-20T01:13:57.344Z,100705.56
2019-06-20T01:17:59.522Z,100696.98
2019-06-20T01:22:02.164Z,100688.30
2019-06-20T01:26:04.867Z,100697.34
2019-06-20T01:30:09.441Z,100698.55
2019-06-20T01:34:11.631Z,100703.20
2019-06-20T01:38:13.878Z,100706.30
2019-06-20T01:42:17.413Z,100713.56
2019-06-20T01:46:21.307Z,100708.37
2019-06-20T01:50:24.941Z,100709.49
2019-06-20T01:54:28.759Z,100705.64
2019-06-20T01:58:32.000Z,100711.20
2019-06-20T02:02:35.400Z,100716.55
2019-06-20T02:06:38.991Z,100714.09
2019-06-20T02:10:43.153Z,100714.42
2019-06-20T02:14:47.143Z,100702.02
2019-06-20T02:18:51.009Z,100698.72
2019-06-20T02:22:54.569Z,100700.47
2019-06-20T02:26:58.442Z,100708.44
2019-06-20T02:31:02.510Z,100701.66
2019-06-20T02:35:06.585Z,100698.34
2019-06-20T02:39:10.491Z,100708.41
2019-06-20T02:43:14.313Z,100703.48
2019-06-20T02:47:18.167Z,100705.50
2019-06-20T02:51:25.116Z,100703.38
2019-06-20T02:55:28.871Z,100698.95
2019-06-20T02:59:32.650Z,100698.44
2019-06-20T03:03:36.533Z,100699.14
2019-06-20T03:07:40.714Z,100698.99
2019-06-20T03:11:44.644Z,100693.25
2019-06-20T03:15:50.092Z,100696.61
2019-06-20T03:19:52.298Z,100692.58
2019-06-20T03:23:54.559Z,100683.63
2019-06-20T03:27:56.669Z,100688.86
2019-06-20T03:31:59.387Z,100683.28
2019-06-20T03:36:01.608Z,100681.09
2019-06-20T03:40:04.402Z,100667.60
2019-06-20T03:44:06.613Z,100674.16
2019-06-20T03:48:08.798Z,100669.77
2019-06-20T03:52:10.959Z,100671.47
2019-06-20T03:56:13.085Z,100680.75
2019-06-20T04:00:15.727Z,100681.27
2019-06-20T04:04:18.043Z,100681.95
2019-06-20T04:08:20.161Z,100683.14
2019-06-20T04:12:22.337Z,100681.80
2019-06-20T04:16:24.758Z,100684.08
2019-06-20T04:20:27.130Z,100684.27
2019-06-20T04:24:29.112Z,100697.95
2019-06-20T04:28:31.454Z,100688.58
2019-06-20T04:32:34.102Z,100686.15
2019-06-20T04:36:36.323Z,100682.93
2019-06-20T04:40:39.980Z,100691.44
2019-06-20T04:44:43.957Z,100688.16
2019-06-20T04:48:47.250Z,100691.14
2019-06-20T04:52:51.073Z,100688.48
2019-06-20T04:56:54.018Z,100689.55
2019-06-20T05:00:57.682Z,100689.03
2019-06-20T05:05:01.459Z,100687.72
2019-06-20T05:09:06.268Z,100689.62
2019-06-20T05:13:10.147Z,100686.80
2019-06-20T05:17:14.920Z,100687.72
2019-06-20T05:21:22.269Z,100692.23
2019-06-20T05:25:24.189Z,100690.82
2019-06-20T05:29:27.946Z,100689.66
2019-06-20T05:33:32.319Z,100693.77
2019-06-20T05:37:36.080Z,100687.97
2019-06-20T05:41:39.993Z,100683.55
2019-06-20T05:45:47.601Z,100683.87
2019-06-20T05:49:49.246Z,100687.71
2019-06-20T05:53:53.002Z,100688.48
2019-06-20T05:57:56.489Z,100682.84
2019-06-20T06:02:00.254Z,100676.06
2019-06-20T06:06:04.064Z,100675.52
2019-06-20T06:14:09.949Z,100662.95
2019-06-20T06:18:12.116Z,100659.69
2019-06-20T06:22:14.277Z,100651.48
2019-06-20T06:26:16.463Z,100646.98
2019-06-20T06:30:19.051Z,100652.89
2019-06-20T06:34:22.144Z,100659.02
2019-06-20T06:38:24.762Z,100651.67
2019-06-20T06:42:27.675Z,100665.39
2019-06-20T06:46:44.017Z,100652.16
2019-06-20T06:50:34.377Z,100655.84
2019-06-20T06:54:36.594Z,100645.68
2019-06-20T06:58:38.745Z,100645.66
2019-06-20T07:02:41.058Z,100637.73
2019-06-20T07:06:43.210Z,100635.73
2019-06-20T07:10:45.252Z,100638.00
2019-06-20T07:14:47.235Z,100629.19
2019-06-20T07:18:51.106Z,100629.19
2019-06-20T07:22:55.592Z,100636.92
2019-06-20T07:26:57.596Z,100633.68
2019-06-20T07:30:59.595Z,100635.95
2019-06-20T07:35:04.044Z,100622.92
2019-06-20T07:39:09.280Z,100632.48
2019-06-20T07:43:12.671Z,100630.34
2019-06-20T07:47:18.194Z,100635.12
2019-06-20T07:51:21.662Z,100630.68
2019-06-20T07:55:24.580Z,100623.83
2019-06-20T07:59:28.436Z,100628.81
2019-06-20T08:03:32.152Z,100624.77
2019-06-20T08:07:36.096Z,100623.43
2019-06-20T08:11:39.838Z,100622.41
2019-06-20T08:15:43.719Z,100626.75
2019-06-20T08:19:47.762Z,100622.90
2019-06-20T08:23:51.522Z,100616.22
2019-06-20T08:27:57.223Z,100616.39
2019-06-20T08:32:01.126Z,100613.06
2019-06-20T08:36:06.723Z,100611.52
2019-06-20T08:40:10.777Z,100614.42
2019-06-20T08:44:14.532Z,100618.30
2019-06-20T08:48:18.459Z,100613.70
2019-06-20T08:52:22.214Z,100614.38
2019-06-20T08:56:26.088Z,100603.55
2019-06-20T09:00:31.519Z,100602.19
2019-06-20T09:04:35.469Z,100604.36
2019-06-20T09:08:40.226Z,100605.69
2019-06-20T09:12:44.031Z,100607.25
2019-06-20T09:16:47.805Z,100604.55
2019-06-20T09:20:50.024Z,100604.45
2019-06-20T09:24:53.326Z,100596.91
2019-06-20T09:28:57.151Z,100602.11
2019-06-20T09:32:59.998Z,100596.44
2019-06-20T09:37:04.007Z,100591.06
2019-06-20T09:41:06.193Z,100592.55
2019-06-20T09:45:09.074Z,100592.13
2019-06-20T09:49:11.180Z,100584.72
2019-06-20T09:53:13.265Z,100585.95
2019-06-20T09:57:15.265Z,100584.45
2019-06-20T10:01:17.322Z,100574.88
2019-06-20T10:05:19.660Z,100569.91
2019-06-20T10:09:21.833Z,100572.81
2019-06-20T10:13:23.977Z,100574.27
2019-06-20T10:17:26.225Z,100570.61
2019-06-20T10:21:28.366Z,100578.67
2019-06-20T10:25:30.832Z,100571.09
2019-06-20T10:29:33.268Z,100569.28
2019-06-20T10:33:35.704Z,100567.53
2019-06-20T10:37:38.646Z,100566.12
2019-06-20T10:41:41.699Z,100562.58
2019-06-20T10:45:45.841Z,100561.33
2019-06-20T10:49:50.410Z,100567.33
2019-06-20T10:53:53.463Z,100558.77
2019-06-20T10:57:56.846Z,100555.83
2019-06-20T11:02:00.619Z,100566.05
2019-06-20T11:06:04.322Z,100561.99
2019-06-20T11:10:09.273Z,100561.03
2019-06-20T11:14:12.786Z,100563.47
2019-06-20T11:18:16.169Z,100560.08
2019-06-20T11:22:19.741Z,100557.91
2019-06-20T11:26:23.484Z,100549.02
2019-06-20T11:30:28.117Z,100552.95
2019-06-20T11:34:31.485Z,100549.06
2019-06-20T11:38:34.926Z,100550.31
2019-06-20T11:42:38.328Z,100547.52
2019-06-20T11:46:42.657Z,100546.28
2019-06-20T11:50:46.628Z,100545.59
2019-06-20T11:54:51.323Z,100547.90
2019-06-20T11:58:55.089Z,100552.58
2019-06-20T12:02:59.858Z,100547.58
2019-06-20T12:07:03.234Z,100548.69
2019-06-20T12:11:06.693Z,100545.41
2019-06-20T12:15:10.256Z,100543.67
2019-06-20T12:19:12.120Z,100542.70
2019-06-20T12:23:13.866Z,100546.18
2019-06-20T12:27:15.754Z,100534.88
2019-06-20T12:31:19.781Z,100538.39
2019-06-20T12:35:22.237Z,100538.16
2019-06-20T12:39:24.003Z,100538.86
2019-06-20T12:43:25.911Z,100546.30
2019-06-20T12:47:27.686Z,100529.73
2019-06-20T12:51:29.627Z,100502.30
2019-06-20T12:55:31.750Z,100502.30
2019-06-20T12:59:33.976Z,100500.67
2019-06-20T13:03:35.888Z,100492.73
2019-06-20T13:07:39.236Z,100478.44
2019-06-20T13:11:42.645Z,100476.16
2019-06-20T13:15:44.860Z,100466.91
2019-06-20T13:19:46.817Z,100467.32
2019-06-20T13:23:49.647Z,100459.50
2019-06-20T13:27:53.213Z,100454.55
2019-06-20T13:32:03.833Z,100446.44
2019-06-20T13:35:59.678Z,100449.87
2019-06-20T13:40:03.064Z,100442.88
2019-06-20T13:44:06.580Z,100437.91
2019-06-20T13:48:10.359Z,100433.02
2019-06-20T13:52:13.813Z,100426.22
2019-06-20T13:56:17.358Z,100428.25
2019-06-20T14:00:21.652Z,100425.60
2019-06-20T14:04:25.229Z,100425.73
2019-06-20T14:08:29.088Z,100416.66
2019-06-20T14:12:32.617Z,100414.49
2019-06-20T14:16:36.406Z,100415.15
2019-06-20T14:20:40.081Z,100416.28
2019-06-20T14:24:45.054Z,100403.28
2019-06-20T14:28:48.856Z,100396.19
2019-06-20T14:32:53.998Z,100384.91
2019-06-20T14:36:58.098Z,100388.31
2019-06-20T14:41:01.960Z,100376.69
2019-06-20T14:45:06.356Z,100381.04
2019-06-20T14:49:10.173Z,100373.08
2019-06-20T14:53:13.900Z,100360.36
2019-06-20T14:57:18.887Z,100361.44
2019-06-20T15:01:22.645Z,100356.47
2019-06-20T15:05:26.236Z,100346.80
2019-06-20T15:09:30.264Z,100349.03
2019-06-20T15:13:34.055Z,100341.30
2019-06-20T15:17:37.937Z,100333.56
2019-06-20T15:21:41.705Z,100330.80
2019-06-20T15:25:43.963Z,100329.36
2019-06-20T15:29:47.612Z,100323.35
2019-06-20T15:33:51.680Z,100318.67
2019-06-20T15:37:55.683Z,100312.83
2019-06-20T15:41:58.228Z,100313.95
2019-06-20T15:46:00.305Z,100311.44
2019-06-20T15:50:02.820Z,100319.67
2019-06-20T15:54:05.070Z,100323.38
2019-06-20T15:58:07.405Z,100320.77
2019-06-20T16:02:09.950Z,100311.68
2019-06-20T16:06:12.212Z,100310.77
2019-06-20T16:10:14.466Z,100309.53
2019-06-20T16:14:18.119Z,100325.84
2019-06-20T16:18:20.270Z,100327.98
2019-06-20T16:22:22.522Z,100330.27
2019-06-20T16:26:25.727Z,100341.27
2019-06-20T16:30:28.388Z,100337.33
2019-06-20T16:34:30.596Z,100331.77
2019-06-20T16:38:32.818Z,100328.82
2019-06-20T16:42:35.116Z,100325.78
2019-06-20T16:46:38.532Z,100323.26
2019-06-20T16:50:42.122Z,100328.46
2019-06-20T16:54:45.738Z,100319.91
2019-06-20T16:58:49.508Z,100320.10
2019-06-20T17:02:53.256Z,100323.86
2019-06-20T17:06:58.172Z,100314.48
2019-06-20T17:11:02.014Z,100314.48
2019-06-20T17:15:07.993Z,100317.15
2019-06-20T17:19:11.898Z,100317.28
2019-06-20T17:23:15.314Z,100317.28
2019-06-20T17:27:19.083Z,100321.70
2019-06-20T17:31:23.944Z,100321.70
2019-06-20T17:35:27.999Z,100326.25
2019-06-20T17:39:34.294Z,100310.14
2019-06-20T17:43:37.970Z,100300.48
2019-06-20T17:47:42.845Z,100301.53
2019-06-20T17:51:46.703Z,100302.05
2019-06-20T17:55:50.388Z,100300.09
2019-06-20T17:59:54.132Z,100293.63
2019-06-20T18:04:12.838Z,100290.36
2019-06-20T18:08:14.702Z,100282.91
2019-06-20T18:12:09.112Z,100286.77
2019-06-20T18:16:24.679Z,100292.48
2019-06-20T18:20:19.629Z,100295.41
2019-06-20T18:24:23.456Z,100302.05
2019-06-20T18:28:25.743Z,100309.48
2019-06-20T18:32:27.758Z,100308.10
2019-06-20T18:36:30.007Z,100312.28
2019-06-20T18:40:32.250Z,100312.07
2019-06-20T18:44:34.385Z,100308.00
2019-06-20T18:48:36.604Z,100305.36
2019-06-20T18:52:51.655Z,100306.90
2019-06-20T18:56:42.698Z,100307.15
2019-06-20T19:00:44.912Z,100303.36
2019-06-20T19:04:50.712Z,100304.71
2019-06-20T19:08:52.529Z,100306.88
2019-06-20T19:12:56.554Z,100302.73
2019-06-20T19:17:00.423Z,100310.86
2019-06-20T19:21:04.254Z,100303.69
2019-06-20T19:25:08.621Z,100300.81
2019-06-20T19:29:12.301Z,100304.84
2019-06-20T19:33:16.202Z,100307.05
2019-06-20T19:37:19.954Z,100302.83
2019-06-20T19:41:24.649Z,100293.52
2019-06-20T19:45:28.478Z,100292.30
2019-06-20T19:49:32.612Z,100290.77
2019-06-20T19:53:37.560Z,100283.83
2019-06-20T19:57:41.327Z,100287.80
2019-06-20T20:01:45.385Z,100294.39
2019-06-20T20:05:49.475Z,100300.44
2019-06-20T20:09:53.649Z,100295.92
2019-06-20T20:13:58.844Z,100299.81
2019-06-20T20:18:02.722Z,100309.23
2019-06-20T20:22:07.495Z,100304.86
2019-06-20T20:26:11.247Z,100315.30
2019-06-20T20:30:16.897Z,100325.84
2019-06-20T20:34:20.949Z,100324.87
2019-06-20T20:38:24.606Z,100320.84
2019-06-20T20:42:28.371Z,100322.02
2019-06-20T20:46:32.134Z,100312.70
2019-06-20T20:50:35.930Z,100317.38
2019-06-20T20:54:39.772Z,100318.56
2019-06-20T20:58:44.580Z,100315.17
2019-06-20T21:02:48.332Z,100316.11
2019-06-20T21:06:52.006Z,100323.30
2019-06-20T21:10:55.962Z,100326.70
2019-06-20T21:14:59.765Z,100317.34
2019-06-20T21:19:03.644Z,100319.09
2019-06-20T21:23:07.371Z,100310.78
2019-06-20T21:27:11.347Z,100322.41
2019-06-20T21:31:15.405Z,100318.69
2019-06-20T21:35:19.466Z,100316.80
2019-06-20T21:39:23.360Z,100309.08
2019-06-20T21:43:27.083Z,100307.90
2019-06-20T21:47:30.672Z,100298.69
2019-06-20T21:51:34.506Z,100288.18
2019-06-20T21:55:36.913Z,100279.91
2019-06-20T21:59:39.130Z,100276.52
2019-06-20T22:03:41.458Z,100277.87
2019-06-20T22:07:43.594Z,100278.13
2019-06-20T22:11:47.395Z,100265.59
2019-06-20T22:15:49.450Z,100265.93
2019-06-20T22:19:51.513Z,100258.60
2019-06-20T22:23:53.679Z,100272.56
2019-06-20T22:27:55.848Z,100264.27
2019-06-20T22:31:58.002Z,100272.62
2019-06-20T22:36:00.270Z,100264.00
2019-06-20T22:40:02.236Z,100262.73
2019-06-20T22:44:04.553Z,100265.08
2019-06-20T22:48:07.274Z,100266.00
2019-06-20T22:52:09.588Z,100266.92
2019-06-20T22:56:11.674Z,100260.06
2019-06-20T23:00:14.488Z,100266.16
2019-06-20T23:04:16.637Z,100258.70
2019-06-20T23:08:18.755Z,100257.42
2019-06-20T23:12:22.041Z,100242.31
2019-06-20T23:16:24.300Z,100245.87
2019-06-20T23:20:26.581Z,100236.16
2019-06-20T23:24:30.398Z,100244.14
2019-06-20T23:28:34.115Z,100252.78
2019-06-20T23:32:37.907Z,100256.67
2019-06-20T23:36:41.666Z,100249.59
2019-06-20T23:40:45.437Z,100249.02
2019-06-20T23:44:49.587Z,100235.20
2019-06-20T23:48:53.257Z,100243.27
2019-06-20T23:53:03.154Z,100253.71
2019-06-20T23:57:06.959Z,100250.37
